Time;durP1;ratioP1;P1;durP2;ratioP2;P2;SDS_P1;SDS_P2;PMS_P1;PMS_P2;Temp;Humidity;BMP_temperature;BMP_pressure;BME280_temperature;BME280_humidity;BME280_pressure;Samples;Min_cycle;Max_cycle;Signal;HPM_P1;HPM_P2
2023/07/29 00:02:02;;;;;;;16.08;14.38;;;19.90;99.90;;;;;;4980757;28;20126;-79
2023/07/29 00:04:29;;;;;;;15.88;14.15;;;19.90;99.90;;;;;;4983833;28;20050;-79
2023/07/29 00:06:55;;;;;;;16.40;14.80;;;19.80;99.90;;;;;;4982946;28;20045;-79
2023/07/29 00:09:20;;;;;;;16.75;14.20;;;19.80;99.90;;;;;;4965987;28;20541;-79
2023/07/29 00:11:46;;;;;;;15.40;13.80;;;19.80;99.90;;;;;;4986670;28;20050;-79
2023/07/29 00:14:12;;;;;;;18.10;15.60;;;19.80;99.90;;;;;;4986219;28;20049;-79
2023/07/29 00:16:37;;;;;;;15.30;13.70;;;19.70;99.90;;;;;;4982065;28;20113;-79
2023/07/29 00:19:04;;;;;;;16.65;15.05;;;19.70;99.90;;;;;;4966296;28;20054;-79
2023/07/29 00:21:29;;;;;;;15.43;13.88;;;19.70;99.90;;;;;;4983828;28;20053;-79
2023/07/29 00:23:57;;;;;;;16.20;14.57;;;19.70;99.90;;;;;;4977518;28;20046;-79
2023/07/29 00:26:25;;;;;;;17.75;15.85;;;19.60;99.90;;;;;;4965469;28;20042;-79
2023/07/29 00:28:51;;;;;;;18.08;15.93;;;19.60;99.90;;;;;;4978672;28;20047;-82
2023/07/29 00:31:17;;;;;;;18.48;16.40;;;19.60;99.90;;;;;;4954936;28;20045;-79
2023/07/29 00:33:43;;;;;;;19.05;16.75;;;19.60;99.90;;;;;;4983703;28;20043;-79
2023/07/29 00:36:08;;;;;;;18.60;16.80;;;19.60;99.90;;;;;;4976715;28;20054;-79
2023/07/29 00:38:34;;;;;;;18.30;16.58;;;19.60;99.90;;;;;;4986999;28;20039;-79
2023/07/29 00:41:03;;;;;;;19.60;17.23;;;19.70;99.90;;;;;;4984323;28;20042;-79
2023/07/29 00:43:29;;;;;;;16.75;15.15;;;19.70;99.90;;;;;;4981965;28;20504;-79
2023/07/29 00:45:57;;;;;;;17.58;15.77;;;19.70;99.90;;;;;;4956357;28;20034;-79
2023/07/29 00:48:23;;;;;;;17.88;16.17;;;19.70;99.90;;;;;;4985989;28;20150;-79
2023/07/29 00:50:49;;;;;;;18.00;16.30;;;19.60;99.90;;;;;;4978509;28;20701;-79
2023/07/29 00:53:15;;;;;;;18.57;16.77;;;19.60;99.90;;;;;;4965420;28;20476;-79
2023/07/29 00:55:41;;;;;;;18.50;16.60;;;19.60;99.90;;;;;;4961291;28;20042;-79
2023/07/29 00:58:07;;;;;;;18.58;16.60;;;19.60;99.90;;;;;;4966593;28;20058;-79
2023/07/29 01:00:33;;;;;;;17.85;16.05;;;19.60;99.90;;;;;;4967214;28;20093;-79
2023/07/29 01:02:59;;;;;;;18.42;16.55;;;19.60;99.90;;;;;;4965236;28;20070;-79
2023/07/29 01:05:31;;;;;;;18.13;16.33;;;19.60;99.90;;;;;;4985079;28;20042;-79
2023/07/29 01:08:23;;;;;;;18.27;16.58;;;19.60;99.90;;;;;;4980888;28;20034;-79
2023/07/29 01:11:09;;;;;;;17.60;15.88;;;19.50;99.90;;;;;;4966152;28;20046;-79
2023/07/29 01:13:47;;;;;;;17.70;15.90;;;19.60;99.90;;;;;;4960577;28;20046;-79
2023/07/29 01:16:39;;;;;;;16.45;14.95;;;19.50;99.90;;;;;;4975373;28;20410;-79
2023/07/29 01:19:09;;;;;;;17.25;15.60;;;19.50;99.90;;;;;;4977000;28;20053;-79
2023/07/29 01:21:37;;;;;;;19.23;17.13;;;19.50;99.90;;;;;;4984750;28;20117;-79
2023/07/29 01:24:02;;;;;;;17.50;15.45;;;19.50;99.90;;;;;;4967510;28;20061;-79
2023/07/29 01:26:29;;;;;;;17.25;15.45;;;19.40;99.90;;;;;;4980008;28;20394;-79
2023/07/29 01:28:56;;;;;;;16.15;14.45;;;19.40;99.90;;;;;;4977504;28;20046;-79
2023/07/29 01:31:37;;;;;;;16.45;14.75;;;19.40;99.90;;;;;;4973439;28;20060;-79
2023/07/29 01:34:15;;;;;;;16.35;14.35;;;19.40;99.90;;;;;;4978329;28;20513;-79
2023/07/29 01:36:43;;;;;;;16.00;14.35;;;19.40;99.90;;;;;;4964602;28;20069;-79
2023/07/29 01:39:11;;;;;;;16.48;14.77;;;19.30;99.90;;;;;;4971113;28;20105;-79
2023/07/29 01:41:37;;;;;;;16.10;14.50;;;19.30;99.90;;;;;;4984567;28;20046;-79
2023/07/29 01:44:04;;;;;;;16.60;14.90;;;19.30;99.90;;;;;;4959313;28;20453;-79
2023/07/29 01:46:33;;;;;;;14.93;13.48;;;19.30;99.90;;;;;;4982546;28;20046;-79
2023/07/29 01:48:59;;;;;;;14.95;13.52;;;19.30;99.90;;;;;;4975428;28;20093;-79
2023/07/29 01:51:25;;;;;;;14.93;13.40;;;19.30;99.90;;;;;;4969389;28;20509;-79
2023/07/29 01:53:50;;;;;;;15.23;13.82;;;19.30;99.90;;;;;;4977905;28;20038;-79
2023/07/29 01:56:16;;;;;;;14.73;13.23;;;19.30;99.90;;;;;;4983345;28;20054;-79
2023/07/29 01:58:42;;;;;;;15.02;13.43;;;19.30;99.90;;;;;;4976098;28;20058;-79
2023/07/29 02:01:07;;;;;;;15.60;13.68;;;19.30;99.90;;;;;;4981479;28;20136;-79
2023/07/29 02:03:33;;;;;;;14.32;12.93;;;19.30;99.90;;;;;;4964095;28;20413;-79
2023/07/29 02:05:59;;;;;;;14.00;12.60;;;19.30;99.90;;;;;;4978641;28;20454;-79
2023/07/29 02:08:24;;;;;;;15.00;13.45;;;19.30;99.90;;;;;;4974935;28;20400;-79
2023/07/29 02:10:50;;;;;;;14.73;13.35;;;19.30;99.90;;;;;;4958709;28;20050;-79
2023/07/29 02:13:16;;;;;;;15.07;13.57;;;19.30;99.90;;;;;;4980286;28;20054;-79
2023/07/29 02:15:41;;;;;;;13.73;12.43;;;19.30;99.90;;;;;;4966528;28;20046;-79
2023/07/29 02:18:07;;;;;;;15.20;13.70;;;19.20;99.90;;;;;;4975824;28;20381;-79
2023/07/29 02:20:33;;;;;;;14.98;13.38;;;19.20;99.90;;;;;;4983818;28;20046;-79
2023/07/29 02:22:59;;;;;;;15.18;13.70;;;19.10;99.90;;;;;;4967266;28;20066;-79
2023/07/29 02:25:24;;;;;;;15.38;13.75;;;19.10;99.90;;;;;;4981341;28;20074;-79
2023/07/29 02:27:50;;;;;;;14.55;13.05;;;19.10;99.90;;;;;;4980728;28;20045;-79
2023/07/29 02:30:16;;;;;;;15.52;14.00;;;19.00;99.90;;;;;;4979573;28;20039;-79
2023/07/29 02:32:41;;;;;;;14.82;13.25;;;19.00;99.90;;;;;;4981986;28;20073;-79
2023/07/29 02:35:07;;;;;;;14.10;12.80;;;19.00;99.90;;;;;;4982187;28;20165;-79
2023/07/29 02:37:33;;;;;;;15.07;13.48;;;19.00;99.90;;;;;;4959858;28;20049;-79
2023/07/29 02:39:59;;;;;;;14.38;12.50;;;19.00;99.90;;;;;;4977530;28;20138;-79
2023/07/29 02:42:25;;;;;;;14.68;13.18;;;19.00;99.90;;;;;;4967228;28;20042;-79
2023/07/29 02:44:50;;;;;;;13.27;11.98;;;19.00;99.90;;;;;;4978638;28;20035;-78
2023/07/29 02:47:16;;;;;;;12.40;11.02;;;19.00;99.90;;;;;;4962546;28;20690;-79
2023/07/29 02:49:42;;;;;;;12.77;11.57;;;19.00;99.90;;;;;;4967049;28;20066;-79
2023/07/29 02:52:07;;;;;;;13.55;11.43;;;19.00;99.90;;;;;;4963331;28;20069;-79
2023/07/29 02:54:33;;;;;;;12.57;11.27;;;18.90;99.90;;;;;;4957058;28;20074;-79
2023/07/29 02:56:59;;;;;;;12.65;11.20;;;18.80;99.90;;;;;;4975390;28;20149;-79
2023/07/29 02:59:24;;;;;;;12.43;11.20;;;18.80;99.90;;;;;;4979341;28;20538;-79
2023/07/29 03:01:50;;;;;;;11.98;10.70;;;18.70;99.90;;;;;;4974955;28;20125;-79
2023/07/29 03:04:16;;;;;;;12.25;10.55;;;18.70;99.90;;;;;;4977775;28;20050;-79
2023/07/29 03:06:41;;;;;;;10.70;9.60;;;18.70;99.90;;;;;;4976734;28;20041;-79
2023/07/29 03:09:07;;;;;;;11.88;9.07;;;18.70;99.90;;;;;;4982640;28;20129;-79
2023/07/29 03:11:33;;;;;;;11.73;9.65;;;18.70;99.90;;;;;;4980079;28;20039;-79
2023/07/29 03:13:58;;;;;;;11.68;9.93;;;18.60;99.90;;;;;;4962701;28;20125;-79
2023/07/29 03:16:24;;;;;;;9.82;8.85;;;18.60;99.90;;;;;;4966175;28;20418;-79
2023/07/29 03:18:50;;;;;;;10.40;8.73;;;18.60;99.90;;;;;;4984537;28;20096;-79
2023/07/29 03:21:15;;;;;;;10.88;8.90;;;18.50;99.90;;;;;;4971419;28;20184;-81
2023/07/29 03:23:41;;;;;;;9.75;8.60;;;18.50;99.90;;;;;;4967460;28;20437;-78
2023/07/29 03:26:10;;;;;;;8.85;7.85;;;18.50;99.90;;;;;;4978149;28;20047;-78
2023/07/29 03:28:38;;;;;;;9.43;7.78;;;18.50;99.90;;;;;;4980756;28;20042;-79
2023/07/29 03:31:04;;;;;;;8.68;7.45;;;18.40;99.90;;;;;;4985848;28;20054;-79
2023/07/29 03:33:30;;;;;;;9.13;7.80;;;18.40;99.90;;;;;;4985239;28;20049;-80
2023/07/29 03:35:56;;;;;;;9.65;7.68;;;18.40;99.90;;;;;;4981680;28;20042;-79
2023/07/29 03:38:21;;;;;;;8.75;7.13;;;18.40;99.90;;;;;;4976106;28;20924;-79
2023/07/29 03:40:47;;;;;;;8.70;7.45;;;18.40;99.90;;;;;;4976022;28;20042;-78
2023/07/29 03:43:13;;;;;;;9.75;7.72;;;18.40;99.90;;;;;;4971932;28;20046;-79
2023/07/29 03:45:39;;;;;;;10.55;7.43;;;18.40;99.90;;;;;;4985731;28;20465;-79
2023/07/29 03:48:05;;;;;;;10.13;7.40;;;18.40;99.90;;;;;;4968838;28;20676;-79
2023/07/29 03:50:35;;;;;;;8.18;7.30;;;18.40;99.90;;;;;;4981820;28;20552;-79
2023/07/29 03:53:01;;;;;;;7.93;6.70;;;18.40;99.90;;;;;;4979146;28;20100;-79
2023/07/29 03:55:26;;;;;;;8.68;6.82;;;18.30;99.90;;;;;;4957982;28;20054;-79
2023/07/29 03:57:52;;;;;;;8.10;7.30;;;18.40;99.90;;;;;;4981901;28;20042;-78
2023/07/29 04:00:18;;;;;;;11.40;7.25;;;18.40;99.90;;;;;;4967046;28;20124;-79
2023/07/29 04:02:45;;;;;;;8.13;7.32;;;18.40;99.90;;;;;;4982838;28;20035;-79
2023/07/29 04:05:11;;;;;;;7.72;6.93;;;18.30;99.90;;;;;;4975493;28;20063;-79
2023/07/29 04:07:37;;;;;;;10.65;7.45;;;18.30;99.90;;;;;;4983396;28;20489;-79
2023/07/29 04:10:03;;;;;;;8.52;7.25;;;18.30;99.90;;;;;;4985674;28;20042;-79
2023/07/29 04:12:30;;;;;;;9.32;7.13;;;18.30;99.90;;;;;;4983007;28;20100;-79
2023/07/29 04:14:56;;;;;;;9.85;7.40;;;18.30;99.90;;;;;;4983174;28;20046;-78
2023/07/29 04:17:21;;;;;;;8.20;7.00;;;18.30;99.90;;;;;;4972174;28;20127;-78
2023/07/29 04:19:47;;;;;;;7.05;6.30;;;18.20;99.90;;;;;;4981873;28;20082;-78
2023/07/29 04:22:14;;;;;;;8.68;6.95;;;18.20;99.90;;;;;;4967862;28;20038;-78
2023/07/29 04:24:39;;;;;;;7.07;5.97;;;18.20;99.90;;;;;;4964878;28;20085;-78
2023/07/29 04:27:05;;;;;;;9.90;6.68;;;18.20;99.90;;;;;;4982052;28;20418;-78
2023/07/29 04:29:31;;;;;;;8.68;6.70;;;18.20;99.90;;;;;;4962551;28;20046;-78
2023/07/29 04:31:57;;;;;;;7.53;6.60;;;18.20;99.90;;;;;;4966118;28;20500;-79
2023/07/29 04:34:23;;;;;;;8.75;6.43;;;18.20;99.90;;;;;;4984600;28;20069;-78
2023/07/29 04:36:48;;;;;;;7.93;6.78;;;18.20;99.90;;;;;;4968582;28;20137;-79
2023/07/29 04:39:14;;;;;;;7.28;6.00;;;18.30;99.90;;;;;;4982925;28;20389;-78
2023/07/29 04:41:40;;;;;;;7.35;6.53;;;18.30;99.90;;;;;;4973440;28;20524;-78
2023/07/29 04:44:07;;;;;;;8.00;6.00;;;18.30;99.90;;;;;;4954747;28;20042;-77
2023/07/29 04:46:33;;;;;;;7.10;6.22;;;18.20;99.90;;;;;;4977391;28;20043;-78
2023/07/29 04:48:59;;;;;;;7.00;5.60;;;18.30;99.90;;;;;;4983166;28;20070;-78
2023/07/29 04:51:24;;;;;;;6.13;5.45;;;18.30;99.90;;;;;;4963303;28;20469;-78
2023/07/29 04:53:50;;;;;;;7.00;5.38;;;18.30;99.90;;;;;;4979996;28;20042;-78
2023/07/29 04:56:16;;;;;;;6.90;5.68;;;18.40;99.90;;;;;;4966479;28;20074;-78
2023/07/29 04:58:41;;;;;;;6.70;5.63;;;18.40;99.90;;;;;;4986367;28;20046;-78
2023/07/29 05:01:07;;;;;;;7.82;5.68;;;18.40;99.90;;;;;;4986498;28;20042;-78
2023/07/29 05:03:33;;;;;;;7.90;5.95;;;18.40;99.90;;;;;;4980109;28;20093;-78
2023/07/29 05:05:59;;;;;;;7.60;5.55;;;18.40;99.90;;;;;;4971119;28;20042;-78
2023/07/29 05:08:28;;;;;;;6.38;5.00;;;18.50;99.90;;;;;;4984031;28;20043;-78
2023/07/29 05:10:54;;;;;;;6.75;5.30;;;18.50;99.90;;;;;;4979914;28;20045;-78
2023/07/29 05:13:20;;;;;;;7.07;5.60;;;18.50;99.90;;;;;;4965403;28;20089;-78
2023/07/29 05:15:50;;;;;;;12.52;5.90;;;18.50;99.90;;;;;;4962979;28;20054;-78
2023/07/29 05:18:16;;;;;;;7.80;6.47;;;18.50;99.90;;;;;;4959736;28;20073;-78
2023/07/29 05:20:42;;;;;;;10.02;6.47;;;18.50;99.90;;;;;;4983397;28;20608;-78
2023/07/29 05:23:07;;;;;;;8.55;6.25;;;18.50;99.90;;;;;;4987601;28;20165;-78
2023/07/29 05:25:36;;;;;;;7.40;6.20;;;18.50;99.90;;;;;;4979705;28;20092;-78
2023/07/29 05:28:02;;;;;;;9.50;6.47;;;18.50;99.90;;;;;;4983813;28;20081;-78
2023/07/29 05:30:30;;;;;;;8.40;6.28;;;18.50;99.90;;;;;;4957896;28;21034;-78
2023/07/29 05:33:00;;;;;;;8.95;6.65;;;18.50;99.90;;;;;;4976376;28;20042;-80
2023/07/29 05:35:26;;;;;;;8.10;7.30;;;18.50;99.90;;;;;;4984741;28;20136;-76
2023/07/29 05:37:52;;;;;;;8.35;7.55;;;18.50;99.90;;;;;;4979344;28;20042;-79
2023/07/29 05:40:18;;;;;;;9.82;8.20;;;18.50;99.90;;;;;;4980100;28;20042;-80
2023/07/29 05:42:45;;;;;;;9.40;7.85;;;18.50;99.90;;;;;;4964031;28;20132;-79
2023/07/29 05:45:11;;;;;;;10.80;8.20;;;18.50;99.90;;;;;;4982301;28;20554;-72
2023/07/29 05:47:37;;;;;;;9.02;7.80;;;18.60;99.90;;;;;;4974577;28;20068;-73
2023/07/29 05:50:04;;;;;;;9.40;7.65;;;18.60;99.90;;;;;;4975953;28;20104;-76
2023/07/29 05:52:33;;;;;;;9.65;7.53;;;18.60;99.90;;;;;;4983813;28;20042;-76
2023/07/29 05:54:59;;;;;;;10.00;7.20;;;18.60;99.90;;;;;;4972713;28;20090;-75
2023/07/29 05:57:24;;;;;;;10.30;7.60;;;18.70;99.90;;;;;;4960736;28;20566;-75
2023/07/29 05:59:50;;;;;;;8.65;7.35;;;18.70;99.90;;;;;;4976607;28;20343;-75
2023/07/29 06:02:16;;;;;;;10.63;7.70;;;18.70;99.90;;;;;;4978098;28;20035;-75
2023/07/29 06:04:42;;;;;;;10.23;7.40;;;18.70;99.90;;;;;;4975106;28;20042;-76
2023/07/29 06:07:07;;;;;;;8.88;7.47;;;18.60;99.90;;;;;;4958894;28;20067;-75
2023/07/29 06:09:33;;;;;;;11.23;7.35;;;18.70;99.90;;;;;;4974369;28;20495;-75
2023/07/29 06:11:59;;;;;;;10.73;7.75;;;18.70;99.90;;;;;;4985201;28;20026;-75
2023/07/29 06:14:24;;;;;;;10.02;7.75;;;18.70;99.90;;;;;;4979347;28;20049;-75
2023/07/29 06:16:50;;;;;;;10.57;8.10;;;18.70;99.90;;;;;;4977092;28;20105;-75
2023/07/29 06:19:16;;;;;;;11.02;7.53;;;18.70;99.90;;;;;;4986956;28;20038;-75
2023/07/29 06:21:42;;;;;;;9.23;7.38;;;18.70;99.90;;;;;;4981412;28;20038;-75
2023/07/29 06:24:08;;;;;;;12.50;8.20;;;18.70;99.90;;;;;;4977671;28;20050;-75
2023/07/29 06:26:33;;;;;;;10.45;7.18;;;18.70;99.90;;;;;;4977460;28;20043;-75
2023/07/29 06:28:59;;;;;;;10.70;7.97;;;18.80;99.90;;;;;;4963638;28;20070;-75
2023/07/29 06:31:25;;;;;;;11.07;7.70;;;18.80;99.90;;;;;;4982483;28;20342;-74
2023/07/29 06:33:51;;;;;;;10.45;7.60;;;18.90;99.90;;;;;;4979172;28;20061;-75
2023/07/29 06:36:16;;;;;;;10.68;7.70;;;18.90;99.90;;;;;;4967758;28;20125;-76
2023/07/29 06:38:42;;;;;;;11.18;9.02;;;19.00;99.90;;;;;;4977334;28;20577;-76
2023/07/29 06:41:08;;;;;;;10.15;8.05;;;19.10;99.90;;;;;;4979449;28;20405;-76
2023/07/29 06:43:34;;;;;;;17.00;9.15;;;19.10;99.90;;;;;;4980445;28;20119;-74
2023/07/29 06:46:00;;;;;;;11.27;7.57;;;19.20;99.90;;;;;;4976493;28;20117;-74
2023/07/29 06:48:25;;;;;;;10.68;7.85;;;19.20;99.90;;;;;;4970377;28;20145;-72
2023/07/29 06:50:52;;;;;;;9.82;7.30;;;19.20;99.90;;;;;;4976033;28;20039;-71
2023/07/29 06:53:18;;;;;;;10.25;7.28;;;19.20;99.90;;;;;;4985173;28;20050;-72
2023/07/29 06:55:44;;;;;;;9.60;7.57;;;19.30;99.90;;;;;;4971356;28;20046;-72
2023/07/29 06:58:10;;;;;;;11.38;7.65;;;19.40;99.90;;;;;;4976521;28;20053;-72
2023/07/29 07:00:36;;;;;;;8.57;7.38;;;19.50;99.90;;;;;;4976539;28;20062;-74
2023/07/29 07:03:02;;;;;;;10.55;7.22;;;19.60;99.90;;;;;;4971166;28;20042;-73
2023/07/29 07:05:28;;;;;;;8.93;7.00;;;19.60;99.90;;;;;;4987694;28;20060;-73
2023/07/29 07:07:53;;;;;;;10.35;6.53;;;19.70;99.90;;;;;;4968457;28;20050;-72
2023/07/29 07:10:19;;;;;;;8.75;6.60;;;19.70;99.90;;;;;;4982015;28;20446;-75
2023/07/29 07:12:45;;;;;;;8.00;6.78;;;19.70;99.90;;;;;;4969733;28;20042;-72
2023/07/29 07:15:11;;;;;;;11.10;7.00;;;19.70;99.90;;;;;;4964811;28;20486;-75
2023/07/29 07:17:37;;;;;;;8.85;6.47;;;19.80;99.90;;;;;;4980507;28;20034;-73
2023/07/29 07:20:03;;;;;;;9.50;6.50;;;19.80;99.90;;;;;;4990937;28;20046;-73
2023/07/29 07:22:29;;;;;;;10.45;7.00;;;19.80;99.90;;;;;;4989537;28;20116;-74
2023/07/29 07:24:55;;;;;;;11.68;7.05;;;19.80;99.90;;;;;;4970307;28;20474;-73
2023/07/29 07:27:20;;;;;;;10.40;6.70;;;19.80;99.90;;;;;;4964806;28;20049;-73
2023/07/29 07:29:46;;;;;;;10.30;7.13;;;19.80;99.90;;;;;;4984251;28;20050;-74
2023/07/29 07:32:12;;;;;;;9.88;6.15;;;19.70;99.90;;;;;;4984450;28;20034;-74
2023/07/29 07:34:38;;;;;;;11.38;7.57;;;19.70;99.90;;;;;;4984539;28;20132;-74
2023/07/29 07:37:04;;;;;;;10.25;6.85;;;19.60;99.90;;;;;;4977280;28;20050;-75
2023/07/29 07:39:31;;;;;;;11.23;6.55;;;19.70;99.90;;;;;;4965135;28;20062;-77
2023/07/29 07:41:56;;;;;;;7.30;6.20;;;19.80;99.90;;;;;;4978823;28;20070;-76
2023/07/29 07:44:22;;;;;;;9.35;7.03;;;20.00;99.90;;;;;;4972015;28;20166;-74
2023/07/29 07:46:48;;;;;;;9.18;6.43;;;20.10;99.90;;;;;;4985130;28;20031;-74
2023/07/29 07:49:14;;;;;;;9.88;6.97;;;20.10;99.90;;;;;;4969231;28;20038;-75
2023/07/29 07:51:40;;;;;;;10.60;6.85;;;20.10;99.90;;;;;;4980435;28;20053;-74
2023/07/29 07:54:05;;;;;;;8.55;6.28;;;20.10;99.90;;;;;;4976174;28;20214;-74
2023/07/29 07:56:31;;;;;;;8.85;6.50;;;20.20;99.90;;;;;;4971464;28;20049;-74
2023/07/29 07:58:57;;;;;;;8.63;5.78;;;20.20;99.90;;;;;;4984122;28;20058;-73
2023/07/29 08:01:22;;;;;;;7.70;5.60;;;20.20;99.90;;;;;;4978099;28;20046;-74
2023/07/29 08:03:48;;;;;;;9.10;5.82;;;20.30;99.90;;;;;;4977211;28;20045;-74
2023/07/29 08:06:14;;;;;;;9.38;6.10;;;20.30;99.90;;;;;;4972103;28;20130;-74
2023/07/29 08:08:39;;;;;;;10.73;5.75;;;20.30;99.90;;;;;;4972123;28;20129;-75
2023/07/29 08:11:05;;;;;;;11.15;5.65;;;20.30;99.90;;;;;;4982081;28;20581;-74
2023/07/29 08:13:31;;;;;;;7.63;4.70;;;20.40;99.90;;;;;;4981130;28;20418;-74
2023/07/29 08:15:57;;;;;;;7.13;4.57;;;20.50;99.90;;;;;;4966622;28;20050;-75
2023/07/29 08:18:22;;;;;;;7.85;4.57;;;20.60;99.90;;;;;;4984491;28;20046;-78
2023/07/29 08:21:03;;;;;;;8.38;4.28;;;20.70;99.90;;;;;;4954968;28;20152;-77
2023/07/29 08:23:34;;;;;;;6.20;4.40;;;20.70;99.90;;;;;;4974093;28;20088;-74
2023/07/29 08:26:02;;;;;;;5.95;4.45;;;20.70;99.90;;;;;;4979372;28;20058;-76
2023/07/29 08:28:32;;;;;;;7.45;4.40;;;20.60;99.90;;;;;;4970808;28;20050;-76
2023/07/29 08:30:58;;;;;;;6.80;4.05;;;20.60;99.90;;;;;;4979544;28;20057;-77
2023/07/29 08:33:26;;;;;;;7.25;3.80;;;20.60;99.90;;;;;;4976458;28;20042;-76
2023/07/29 08:35:52;;;;;;;6.03;3.70;;;20.50;99.90;;;;;;4965836;28;20061;-74
2023/07/29 08:38:19;;;;;;;7.75;4.18;;;20.50;99.90;;;;;;4965689;28;20585;-74
2023/07/29 08:41:02;;;;;;;9.30;3.90;;;20.50;99.90;;;;;;4986866;28;20042;-74
2023/07/29 08:43:31;;;;;;;5.80;3.63;;;20.50;99.90;;;;;;4972315;28;20050;-75
2023/07/29 08:45:57;;;;;;;7.28;4.00;;;20.50;99.90;;;;;;4970899;28;20402;-75
2023/07/29 08:48:37;;;;;;;6.45;3.63;;;20.50;99.90;;;;;;4979164;28;20054;-76
2023/07/29 08:51:05;;;;;;;7.75;3.40;;;20.50;99.90;;;;;;4980304;28;20048;-82
2023/07/29 08:53:31;;;;;;;6.55;3.90;;;20.60;99.90;;;;;;4983295;28;20050;-76
2023/07/29 08:55:57;;;;;;;6.80;3.47;;;20.80;99.90;;;;;;4979582;28;20078;-76
2023/07/29 08:58:24;;;;;;;4.95;2.97;;;20.80;99.90;;;;;;4978340;28;20059;-76
2023/07/29 09:00:50;;;;;;;6.65;2.97;;;21.00;99.90;;;;;;4958687;28;20092;-76
2023/07/29 09:03:16;;;;;;;4.72;3.13;;;21.10;99.90;;;;;;4960218;28;20478;-76
2023/07/29 09:05:42;;;;;;;6.88;2.97;;;21.10;99.90;;;;;;4972537;28;20097;-76
2023/07/29 09:08:08;;;;;;;6.05;3.33;;;21.00;99.90;;;;;;4982201;28;20038;-76
2023/07/29 09:10:37;;;;;;;5.57;3.20;;;21.00;99.90;;;;;;4979228;28;20046;-79
2023/07/29 09:13:04;;;;;;;4.82;3.00;;;21.10;99.90;;;;;;4981535;28;20034;-79
2023/07/29 09:15:31;;;;;;;6.43;2.92;;;21.20;99.90;;;;;;4977266;28;20047;-78
2023/07/29 09:17:58;;;;;;;5.63;2.65;;;21.40;99.90;;;;;;4980041;28;20105;-76
2023/07/29 09:20:27;;;;;;;6.15;2.95;;;21.50;99.90;;;;;;4978356;28;20046;-78
2023/07/29 09:22:59;;;;;;;5.13;3.38;;;21.60;99.90;;;;;;4981634;28;20057;-77
2023/07/29 09:25:29;;;;;;;4.88;2.83;;;21.70;99.90;;;;;;4980157;28;20061;-79
2023/07/29 09:28:10;;;;;;;6.40;2.72;;;21.60;99.90;;;;;;4978548;28;20135;-80
2023/07/29 09:30:37;;;;;;;5.82;2.70;;;21.60;99.90;;;;;;4969686;28;20503;-79
2023/07/29 09:33:03;;;;;;;7.03;3.08;;;21.60;99.90;;;;;;4984494;28;20042;-80
2023/07/29 09:35:33;;;;;;;5.28;2.50;;;21.70;99.90;;;;;;4971695;28;20119;-80
2023/07/29 09:37:59;;;;;;;5.45;2.78;;;21.80;99.90;;;;;;4963358;28;20057;-78
2023/07/29 09:40:25;;;;;;;4.80;2.60;;;21.80;99.90;;;;;;4983276;28;20039;-83
2023/07/29 09:42:52;;;;;;;4.38;2.60;;;21.90;99.90;;;;;;4969564;28;20100;-84
2023/07/29 09:45:22;;;;;;;8.55;2.78;;;22.00;99.90;;;;;;4975033;28;20084;-84
2023/07/29 09:47:49;;;;;;;5.72;2.38;;;22.00;99.90;;;;;;4977110;28;20097;-82
2023/07/29 09:50:15;;;;;;;5.80;2.40;;;22.10;99.90;;;;;;4980375;28;20126;-82
2023/07/29 09:52:41;;;;;;;7.07;2.60;;;22.20;99.90;;;;;;4967873;28;20046;-79
2023/07/29 09:55:09;;;;;;;4.25;2.38;;;22.30;99.90;;;;;;4978804;28;20057;-82
2023/07/29 09:57:35;;;;;;;5.82;2.25;;;22.30;99.90;;;;;;4986964;28;20081;-83
2023/07/29 10:00:05;;;;;;;3.90;2.28;;;22.20;99.90;;;;;;4973087;28;20059;-76
2023/07/29 10:02:31;;;;;;;4.18;2.28;;;22.20;99.90;;;;;;4979647;28;20073;-79
2023/07/29 10:04:58;;;;;;;5.50;2.40;;;22.20;99.90;;;;;;4954599;28;20051;-76
2023/07/29 10:07:24;;;;;;;3.95;2.10;;;22.20;99.90;;;;;;4971473;28;20046;-76
2023/07/29 10:09:52;;;;;;;4.75;2.50;;;22.20;99.90;;;;;;4965115;28;20113;-76
2023/07/29 10:12:19;;;;;;;3.90;2.20;;;22.10;99.90;;;;;;4969381;28;20049;-75
2023/07/29 10:14:47;;;;;;;5.63;1.83;;;22.10;99.90;;;;;;4980632;28;20094;-74
2023/07/29 10:17:15;;;;;;;4.32;2.08;;;22.20;99.90;;;;;;4963128;28;20042;-74
2023/07/29 10:19:43;;;;;;;5.75;2.50;;;22.30;99.90;;;;;;4959909;28;20054;-74
2023/07/29 10:22:11;;;;;;;3.97;2.22;;;22.40;99.90;;;;;;4967207;28;20046;-80
2023/07/29 10:24:41;;;;;;;3.13;2.08;;;22.50;99.90;;;;;;4964404;28;20509;-77
2023/07/29 10:27:11;;;;;;;3.05;2.10;;;22.70;99.90;;;;;;4979524;28;20057;-80
2023/07/29 10:29:39;;;;;;;4.53;2.40;;;23.00;99.90;;;;;;4975373;28;20046;-78
2023/07/29 10:32:05;;;;;;;5.25;2.35;;;23.20;99.90;;;;;;4969916;28;20043;-82
2023/07/29 10:34:34;;;;;;;6.85;3.00;;;23.30;99.90;;;;;;4977093;28;20403;-82
2023/07/29 10:37:00;;;;;;;4.55;3.15;;;23.40;99.90;;;;;;4981392;28;20201;-79
2023/07/29 10:39:26;;;;;;;4.40;2.53;;;23.30;99.90;;;;;;4965287;28;20046;-81
2023/07/29 10:41:56;;;;;;;3.40;2.95;;;23.20;99.90;;;;;;4976495;28;20588;-81
2023/07/29 10:44:43;;;;;;;5.70;3.25;;;23.20;99.90;;;;;;4974156;28;20058;-75
2023/07/29 10:47:16;;;;;;;5.93;3.05;;;23.20;99.90;;;;;;4977308;28;20109;-80
2023/07/29 10:49:43;;;;;;;4.95;2.83;;;23.10;99.90;;;;;;4972129;28;20435;-83
2023/07/29 10:52:13;;;;;;;4.95;3.63;;;23.20;99.90;;;;;;4974217;28;20117;-82
2023/07/29 10:54:42;;;;;;;5.32;3.10;;;23.30;99.90;;;;;;4976166;28;20061;-79
2023/07/29 10:57:07;;;;;;;4.78;3.58;;;23.40;99.90;;;;;;4960975;28;20537;-80
2023/07/29 10:59:34;;;;;;;5.65;3.60;;;23.50;99.90;;;;;;4987059;28;20050;-77
2023/07/29 11:02:00;;;;;;;4.57;3.97;;;23.50;99.90;;;;;;4974238;28;20501;-84
2023/07/29 11:04:30;;;;;;;4.32;3.70;;;23.40;99.90;;;;;;4980234;28;20055;-85
2023/07/29 11:07:09;;;;;;;3.85;3.17;;;23.50;99.90;;;;;;4977123;28;20074;-82
2023/07/29 11:09:53;;;;;;;5.40;3.50;;;23.60;99.90;;;;;;4986926;28;20108;-76
2023/07/29 11:12:40;;;;;;;4.47;3.80;;;23.70;99.90;;;;;;4970438;28;20125;-77
2023/07/29 11:15:29;;;;;;;5.82;3.40;;;23.70;99.90;;;;;;4961765;28;20121;-82
2023/07/29 11:17:59;;;;;;;7.72;4.57;;;23.60;99.90;;;;;;4982450;28;20505;-84
2023/07/29 11:20:34;;;;;;;6.75;3.55;;;23.50;99.90;;;;;;4958204;28;20051;-86
2023/07/29 11:23:01;;;;;;;5.85;4.45;;;23.40;99.90;;;;;;4967816;28;20049;-83
2023/07/29 11:25:29;;;;;;;4.38;3.75;;;23.30;99.90;;;;;;4985007;28;20197;-84
2023/07/29 11:27:56;;;;;;;5.10;3.97;;;23.20;99.90;;;;;;4969270;28;20097;-83
2023/07/29 11:30:23;;;;;;;7.32;3.30;;;23.20;99.90;;;;;;4955963;28;20182;-80
2023/07/29 11:32:49;;;;;;;6.13;4.00;;;23.20;99.90;;;;;;4988859;28;20536;-80
2023/07/29 11:35:17;;;;;;;5.90;4.53;;;23.40;99.90;;;;;;4973997;28;20054;-80
2023/07/29 11:37:45;;;;;;;5.88;3.92;;;23.30;99.90;;;;;;4967320;28;20401;-80
2023/07/29 11:40:15;;;;;;;5.22;3.97;;;23.20;99.90;;;;;;4982268;28;20046;-83
2023/07/29 11:42:41;;;;;;;5.45;3.83;;;23.40;99.90;;;;;;4983178;28;20172;-81
2023/07/29 11:45:08;;;;;;;5.23;3.87;;;23.60;99.90;;;;;;4972945;28;20444;-84
2023/07/29 11:47:37;;;;;;;6.93;3.90;;;23.70;99.90;;;;;;4967606;28;20053;-83
2023/07/29 11:50:05;;;;;;;4.85;3.95;;;23.70;99.90;;;;;;4990628;28;20050;-82
2023/07/29 11:52:35;;;;;;;7.20;4.07;;;23.80;99.90;;;;;;4972322;28;20046;-80
2023/07/29 11:55:03;;;;;;;6.47;3.75;;;24.00;99.90;;;;;;4967346;28;20043;-82
2023/07/29 11:57:35;;;;;;;7.05;4.43;;;24.10;99.90;;;;;;4969171;28;20062;-84
2023/07/29 12:00:04;;;;;;;5.20;4.20;;;24.20;99.90;;;;;;4970846;28;20059;-83
2023/07/29 12:02:31;;;;;;;5.80;3.75;;;24.10;99.90;;;;;;4985983;28;20133;-81
2023/07/29 12:04:57;;;;;;;5.07;4.03;;;24.10;99.90;;;;;;4986996;28;20047;-83
2023/07/29 12:07:23;;;;;;;5.93;4.00;;;24.20;99.90;;;;;;4986833;28;20045;-81
2023/07/29 12:09:50;;;;;;;6.05;3.67;;;24.20;99.90;;;;;;4964904;28;20046;-80
2023/07/29 12:12:16;;;;;;;5.63;3.90;;;24.30;99.90;;;;;;4978984;28;20034;-83
2023/07/29 12:14:48;;;;;;;4.73;3.90;;;24.30;99.90;;;;;;4983828;28;20053;-82
2023/07/29 12:17:15;;;;;;;7.65;4.32;;;24.20;99.90;;;;;;4966374;28;20338;-81
2023/07/29 12:19:42;;;;;;;5.07;3.85;;;24.10;99.90;;;;;;4965870;28;20069;-81
2023/07/29 12:22:09;;;;;;;5.05;3.78;;;24.10;99.90;;;;;;4991428;28;20038;-84
2023/07/29 12:24:37;;;;;;;4.45;3.70;;;24.00;99.90;;;;;;4970780;28;20050;-83
2023/07/29 12:27:03;;;;;;;4.82;3.50;;;23.90;99.90;;;;;;4975136;28;20026;-83
2023/07/29 12:29:29;;;;;;;6.70;3.40;;;23.90;99.90;;;;;;4981126;28;20064;-83
2023/07/29 12:32:04;;;;;;;5.30;3.30;;;23.90;99.90;;;;;;4992501;28;20121;-85
2023/07/29 12:34:31;;;;;;;5.07;3.20;;;23.80;99.90;;;;;;4987472;28;20710;-84
2023/07/29 12:36:58;;;;;;;4.18;3.00;;;23.90;99.90;;;;;;4979379;28;20042;-85
2023/07/29 12:39:29;;;;;;;3.85;2.60;;;24.00;99.90;;;;;;4993469;28;20096;-85
2023/07/29 12:41:58;;;;;;;5.03;2.50;;;24.10;99.90;;;;;;4986267;28;20486;-86